Culver, Minnesota
Current Conditions -  °F | °C
As of 10:55 AM on Friday 31 Oct 2014 (Local Time) from KDLH Reporting Station
Few Clouds Few Clouds  
Wind Chill: 22°   Ceiling: Unl
Heat Index: 31°   Visibility: 10mi
Dew Point: 18°   Wind: 12mph
Humidity: 59%   Direction: 10°N
Pressure: 30.52"   Gusts: NA
Location:  46.8859°N, 92.4258°W
Report Text: KDLH 311555Z 01010KT 10SM FEW025 M01/M08 A3052 RMK AO2 SLP358 T10061078 $
Loading
Personal Weather Stations






























Interactive Weather Map
Tropical Storm Tracking
New forecast layout! Learn more

10-Day Weather Forecast

Advertisements
Track Severe Weather on mobile